Time;durP1;ratioP1;P1;durP2;ratioP2;P2;SDS_P1;SDS_P2;PMS_P1;PMS_P2;Temp;Humidity;BMP_temperature;BMP_pressure;BME280_temperature;BME280_humidity;BME280_pressure;Samples;Min_cycle;Max_cycle;Signal;HPM_P1;HPM_P2
2022/11/17 00:02:00;;;;;;;31.03;22.40;;;8.60;99.90;;;;;;5059479;28;20037;-57
2022/11/17 00:04:29;;;;;;;39.47;22.87;;;8.60;99.90;;;;;;5053219;28;20045;-57
2022/11/17 00:06:58;;;;;;;33.70;23.65;;;8.60;99.90;;;;;;5064334;28;20842;-57
2022/11/17 00:09:24;;;;;;;33.40;24.70;;;8.60;99.90;;;;;;5056979;28;20048;-57
2022/11/17 00:14:35;;;;;;;32.95;21.38;;;8.60;99.90;;;;;;5066460;28;20037;-57
2022/11/17 00:17:04;;;;;;;29.83;21.40;;;8.70;99.90;;;;;;5049811;28;20036;-57
2022/11/17 00:22:13;;;;;;;34.17;23.45;;;8.70;99.90;;;;;;5068160;28;20049;-55
2022/11/17 00:24:39;;;;;;;33.03;23.47;;;8.70;99.90;;;;;;5065889;28;20059;-56
2022/11/17 00:27:05;;;;;;;32.25;22.30;;;8.70;99.90;;;;;;5070551;28;20481;-56
2022/11/17 00:29:31;;;;;;;37.17;22.17;;;8.70;99.90;;;;;;5065104;28;20079;-57
2022/11/17 00:34:40;;;;;;;32.83;22.52;;;8.70;99.90;;;;;;5061207;28;20116;-56
2022/11/17 00:37:08;;;;;;;29.17;22.77;;;8.70;99.90;;;;;;5050928;28;20550;-54
2022/11/17 00:39:34;;;;;;;27.73;20.60;;;8.70;99.90;;;;;;5067618;28;20064;-54
2022/11/17 00:42:00;;;;;;;31.63;20.65;;;8.70;99.90;;;;;;5063445;28;20851;-53
2022/11/17 00:44:26;;;;;;;34.77;22.57;;;8.70;99.90;;;;;;5067136;28;20608;-56
2022/11/17 00:46:51;;;;;;;29.02;21.35;;;8.70;99.90;;;;;;5051371;28;20060;-56
2022/11/17 00:49:23;;;;;;;31.05;21.42;;;8.70;99.90;;;;;;5058136;28;20036;-57
2022/11/17 00:51:50;;;;;;;26.42;19.30;;;8.70;99.90;;;;;;5066752;28;20523;-54
2022/11/17 00:54:16;;;;;;;33.05;22.52;;;8.70;99.90;;;;;;5054496;28;20048;-56
2022/11/17 00:56:41;;;;;;;31.85;22.40;;;8.70;99.90;;;;;;5064984;28;20493;-56
2022/11/17 00:59:07;;;;;;;28.73;22.00;;;8.70;99.90;;;;;;5070049;28;20044;-57
2022/11/17 01:01:32;;;;;;;32.07;20.27;;;8.70;99.90;;;;;;5060577;28;20095;-56
2022/11/17 01:04:02;;;;;;;30.58;21.55;;;8.70;99.90;;;;;;5058543;28;20278;-56
2022/11/17 01:06:33;;;;;;;29.92;21.58;;;8.70;99.90;;;;;;5068173;28;20067;-56
2022/11/17 01:09:27;;;;;;;30.33;21.58;;;8.70;99.90;;;;;;5066179;28;20039;-56
2022/11/17 01:11:52;;;;;;;26.17;19.98;;;8.70;99.90;;;;;;5056254;28;20103;-56
2022/11/17 01:14:23;;;;;;;27.83;21.13;;;8.70;99.90;;;;;;5052630;28;20041;-56
2022/11/17 01:16:49;;;;;;;28.85;19.00;;;8.70;99.90;;;;;;5059921;28;20037;-56
2022/11/17 01:19:15;;;;;;;28.50;21.35;;;8.60;99.90;;;;;;5084992;28;20035;-56
2022/11/17 01:21:41;;;;;;;;;;;8.70;99.90;;;;;;5068408;28;20047;-57
2022/11/17 01:24:09;;;;;;;28.25;19.80;;;8.70;99.90;;;;;;5068576;28;19920;-57
2022/11/17 01:26:36;;;;;;;27.88;18.77;;;8.70;99.90;;;;;;5068432;28;20059;-57
2022/11/17 01:29:03;;;;;;;26.38;18.05;;;8.70;99.90;;;;;;5067151;28;20318;-58
2022/11/17 01:31:31;;;;;;;26.52;19.67;;;8.70;99.90;;;;;;5070218;28;20040;-57
2022/11/17 01:33:57;;;;;;;26.08;19.63;;;8.70;99.90;;;;;;5068096;28;20436;-55
2022/11/17 01:36:28;;;;;;;24.33;18.77;;;8.70;99.90;;;;;;5069480;28;20040;-56
2022/11/17 01:38:54;;;;;;;27.38;21.30;;;8.70;99.90;;;;;;5053517;28;20052;-53
2022/11/17 01:41:23;;;;;;;26.57;16.80;;;8.70;99.90;;;;;;5063694;28;20036;-57
2022/11/17 01:43:54;;;;;;;24.38;20.10;;;8.70;99.90;;;;;;5048728;28;20033;-57
2022/11/17 01:46:36;;;;;;;30.40;20.98;;;8.70;99.90;;;;;;5048757;28;20087;-56
2022/11/17 01:49:10;;;;;;;27.17;18.55;;;8.70;99.90;;;;;;5061915;28;20497;-57
2022/11/17 01:51:40;;;;;;;27.88;18.05;;;8.70;99.90;;;;;;5069364;28;20040;-57
2022/11/17 01:54:08;;;;;;;23.85;19.00;;;8.70;99.90;;;;;;5068779;28;20401;-56
2022/11/17 01:56:38;;;;;;;25.58;19.63;;;8.70;99.90;;;;;;5068959;28;20044;-57
2022/11/17 01:59:45;;;;;;;20.20;17.75;;;8.70;99.90;;;;;;5059151;28;20041;-56
2022/11/17 02:02:10;;;;;;;25.70;18.33;;;8.70;99.90;;;;;;5049378;28;20076;-57
2022/11/17 02:04:48;;;;;;;25.35;18.40;;;8.70;99.90;;;;;;5047855;28;20544;-55
2022/11/17 02:07:25;;;;;;;26.00;20.95;;;8.70;99.90;;;;;;5047557;28;20047;-57
2022/11/17 02:09:51;;;;;;;25.42;18.70;;;8.70;99.90;;;;;;5050462;28;20128;-54
2022/11/17 02:12:19;;;;;;;24.55;18.52;;;8.70;99.90;;;;;;5049216;28;20041;-57
2022/11/17 02:14:47;;;;;;;24.52;18.73;;;8.70;99.90;;;;;;5048122;28;20041;-57
2022/11/17 02:17:13;;;;;;;28.65;20.52;;;8.70;99.90;;;;;;5060481;28;20058;-55
2022/11/17 02:19:40;;;;;;;27.75;19.67;;;8.70;99.90;;;;;;5062359;28;20111;-57
2022/11/17 02:22:26;;;;;;;23.95;19.45;;;8.70;99.90;;;;;;5067202;28;20051;-57
2022/11/17 02:25:03;;;;;;;26.83;21.30;;;8.70;99.90;;;;;;5080022;28;20501;-57
2022/11/17 02:27:41;;;;;;;28.02;20.85;;;8.70;99.90;;;;;;5069459;28;20051;-56
2022/11/17 02:30:11;;;;;;;28.30;21.85;;;8.60;99.90;;;;;;5068015;28;20044;-57
2022/11/17 02:32:45;;;;;;;29.50;21.40;;;8.60;99.90;;;;;;5070383;28;20128;-57
2022/11/17 02:35:26;;;;;;;29.70;19.23;;;8.60;99.90;;;;;;5071792;28;20072;-56
2022/11/17 02:38:30;;;;;;;31.92;20.95;;;8.60;99.90;;;;;;5072844;28;20052;-57
2022/11/17 02:41:03;;;;;;;29.77;20.40;;;8.60;99.90;;;;;;5054684;28;20041;-57
2022/11/17 02:46:29;;;;;;;37.42;22.60;;;8.60;99.90;;;;;;5052618;28;20037;-58
2022/11/17 02:49:03;;;;;;;27.90;20.70;;;8.60;99.90;;;;;;5052420;28;20414;-56
2022/11/17 02:51:31;;;;;;;29.90;19.15;;;8.60;99.90;;;;;;5052819;28;20052;-54
2022/11/17 02:53:58;;;;;;;32.97;21.73;;;8.60;99.90;;;;;;5051747;28;20429;-56
2022/11/17 02:56:24;;;;;;;29.13;21.33;;;8.60;99.90;;;;;;5052365;28;20033;-56
2022/11/17 02:58:53;;;;;;;28.08;19.52;;;8.60;99.90;;;;;;5052653;28;20043;-54
2022/11/17 03:01:37;;;;;;;35.33;21.98;;;8.60;99.90;;;;;;5067664;28;20048;-54
2022/11/17 03:04:05;;;;;;;32.47;19.73;;;8.60;99.90;;;;;;5071925;28;20405;-53
2022/11/17 03:06:51;;;;;;;27.98;21.20;;;8.60;99.90;;;;;;5072312;28;20283;-56
2022/11/17 03:09:53;;;;;;;24.65;18.90;;;8.50;99.90;;;;;;5081118;28;20119;-54
2022/11/17 03:12:40;;;;;;;32.50;21.27;;;8.60;99.90;;;;;;5072400;28;20064;-54
2022/11/17 03:15:27;;;;;;;34.40;22.25;;;8.50;99.90;;;;;;5055502;28;20055;-53
2022/11/17 03:18:13;;;;;;;35.20;22.42;;;8.50;99.90;;;;;;5055163;28;20041;-53
2022/11/17 03:21:01;;;;;;;30.20;20.88;;;8.50;99.90;;;;;;5085641;28;20449;-57
2022/11/17 03:23:36;;;;;;;27.00;20.25;;;8.50;99.90;;;;;;5063028;28;20533;-54
2022/11/17 03:26:06;;;;;;;31.00;22.05;;;8.50;99.90;;;;;;5076188;28;20037;-57
2022/11/17 03:28:32;;;;;;;34.15;21.27;;;8.50;99.90;;;;;;5051703;28;20091;-54
2022/11/17 03:31:00;;;;;;;27.02;20.80;;;8.50;99.90;;;;;;5069301;28;20036;-57
2022/11/17 03:33:27;;;;;;;28.67;20.30;;;8.50;99.90;;;;;;5066483;28;20044;-54
2022/11/17 03:36:03;;;;;;;30.67;20.38;;;8.50;99.90;;;;;;5070504;28;20040;-54
2022/11/17 03:38:34;;;;;;;26.52;20.00;;;8.50;99.90;;;;;;5071660;28;20081;-54
2022/11/17 03:41:02;;;;;;;27.48;18.88;;;8.50;99.90;;;;;;5071828;28;20086;-55
2022/11/17 03:43:30;;;;;;;28.17;19.70;;;8.50;99.90;;;;;;5069228;28;20086;-53
2022/11/17 03:46:02;;;;;;;28.30;17.77;;;8.50;99.90;;;;;;5069990;28;20541;-54
2022/11/17 03:48:36;;;;;;;23.95;20.00;;;8.50;99.90;;;;;;5071002;28;20032;-56
2022/11/17 03:51:09;;;;;;;28.15;17.30;;;8.40;99.90;;;;;;5072168;28;20047;-56
2022/11/17 03:53:35;;;;;;;23.77;18.17;;;8.50;99.90;;;;;;5066770;28;20053;-54
2022/11/17 03:56:27;;;;;;;24.58;18.42;;;8.40;99.90;;;;;;5069717;28;20047;-56
2022/11/17 03:59:00;;;;;;;24.00;17.77;;;8.40;99.90;;;;;;5060288;28;20429;-55
2022/11/17 04:01:29;;;;;;;24.55;17.23;;;8.40;99.90;;;;;;5071434;28;20048;-58
2022/11/17 04:03:55;;;;;;;25.98;17.90;;;8.40;99.90;;;;;;5068142;28;20517;-56
2022/11/17 04:06:21;;;;;;;19.67;17.40;;;8.40;99.90;;;;;;5071131;28;20052;-57
2022/11/17 04:08:46;;;;;;;26.20;19.50;;;8.40;99.90;;;;;;5071463;28;20040;-56
2022/11/17 04:16:41;;;;;;;22.60;15.57;;;8.40;99.90;;;;;;5070180;28;20526;-55
2022/11/17 04:19:07;;;;;;;17.50;14.95;;;8.30;99.90;;;;;;5071034;28;20063;-56
2022/11/17 04:21:32;;;;;;;16.20;14.50;;;8.40;99.90;;;;;;5078218;28;20504;-57
2022/11/17 04:23:58;;;;;;;20.93;16.03;;;8.40;99.90;;;;;;5079521;28;20285;-54
2022/11/17 04:29:08;;;;;;;23.98;15.70;;;8.40;99.90;;;;;;5070436;28;20048;-57
2022/11/17 04:31:33;;;;;;;21.03;16.80;;;8.30;99.90;;;;;;5069733;28;20040;-56
2022/11/17 04:34:02;;;;;;;19.67;16.13;;;8.30;99.90;;;;;;5050967;28;20062;-56
2022/11/17 04:36:35;;;;;;;21.30;14.38;;;8.30;99.90;;;;;;5050663;28;20037;-56
2022/11/17 04:39:01;;;;;;;18.65;15.90;;;8.30;99.90;;;;;;5051210;28;20072;-57
2022/11/17 04:44:14;;;;;;;18.67;15.45;;;8.30;99.90;;;;;;5051383;28;20049;-58
2022/11/17 04:46:40;;;;;;;18.25;15.93;;;8.20;99.90;;;;;;5069670;28;20572;-56
2022/11/17 04:49:07;;;;;;;20.35;14.93;;;8.20;99.90;;;;;;5070886;28;20048;-58
2022/11/17 04:51:34;;;;;;;19.75;15.73;;;8.20;99.90;;;;;;5070187;28;20037;-56
2022/11/17 04:54:00;;;;;;;16.55;14.85;;;8.20;99.90;;;;;;5068946;28;20044;-57
2022/11/17 04:56:26;;;;;;;17.38;15.32;;;8.20;99.90;;;;;;5051504;28;20033;-56
2022/11/17 04:58:52;;;;;;;16.77;13.82;;;8.20;99.90;;;;;;5050719;28;20048;-56
2022/11/17 05:01:19;;;;;;;18.90;14.68;;;8.20;99.90;;;;;;5050707;28;20040;-56
2022/11/17 05:03:57;;;;;;;15.98;14.13;;;8.20;99.90;;;;;;5049083;28;20044;-54
2022/11/17 05:06:34;;;;;;;14.48;12.65;;;8.20;99.90;;;;;;5063106;28;20078;-53
2022/11/17 05:09:06;;;;;;;16.55;13.10;;;8.10;99.90;;;;;;5069094;28;20103;-56
2022/11/17 05:14:18;;;;;;;15.10;12.48;;;8.00;99.90;;;;;;5068727;28;20124;-56
2022/11/17 05:19:29;;;;;;;15.43;12.20;;;8.00;99.90;;;;;;5070027;28;20413;-55
2022/11/17 05:21:55;;;;;;;13.80;11.93;;;7.90;99.90;;;;;;5052792;28;20072;-53
2022/11/17 05:24:21;;;;;;;12.93;10.15;;;7.90;99.90;;;;;;5048444;28;20508;-54
2022/11/17 05:26:48;;;;;;;13.40;12.10;;;7.90;99.90;;;;;;5050792;28;20073;-53
2022/11/17 05:29:16;;;;;;;10.68;9.57;;;7.80;99.90;;;;;;5049466;28;20037;-53
2022/11/17 05:31:42;;;;;;;14.52;12.70;;;7.80;99.90;;;;;;5049569;28;20055;-57
2022/11/17 05:34:09;;;;;;;13.32;11.65;;;7.80;99.90;;;;;;5049052;28;20037;-56
2022/11/17 05:36:35;;;;;;;13.60;11.35;;;7.80;99.90;;;;;;5052560;28;20041;-56
2022/11/17 05:39:01;;;;;;;13.57;11.65;;;7.70;99.90;;;;;;5069719;28;20041;-56
2022/11/17 05:41:27;;;;;;;13.93;12.07;;;7.70;99.90;;;;;;5069260;28;20052;-55
2022/11/17 05:43:53;;;;;;;;;;;7.70;99.90;;;;;;5068681;28;20111;-57
2022/11/17 05:46:19;;;;;;;12.55;11.30;;;7.70;99.90;;;;;;5069193;28;20003;-57
2022/11/17 05:48:47;;;;;;;13.18;11.88;;;7.60;99.90;;;;;;5068092;28;20032;-56
2022/11/17 05:51:13;;;;;;;14.05;11.63;;;7.60;99.90;;;;;;5069966;28;20071;-56
2022/11/17 05:53:38;;;;;;;13.63;11.20;;;7.60;99.90;;;;;;5068612;28;20063;-54
2022/11/17 05:56:07;;;;;;;13.33;11.70;;;7.60;99.90;;;;;;5069051;28;20120;-58
2022/11/17 05:58:35;;;;;;;14.20;11.15;;;7.60;99.90;;;;;;5058744;28;20047;-57
2022/11/17 06:01:02;;;;;;;12.43;11.20;;;7.60;99.90;;;;;;5069377;28;20039;-54
2022/11/17 06:03:33;;;;;;;13.07;11.70;;;7.60;99.90;;;;;;5068256;28;20061;-56
2022/11/17 06:05:58;;;;;;;12.10;10.82;;;7.60;99.90;;;;;;5069514;28;20497;-55
2022/11/17 06:08:25;;;;;;;12.73;11.17;;;7.60;99.90;;;;;;5071602;28;20043;-56
2022/11/17 06:10:51;;;;;;;12.25;10.95;;;7.60;99.90;;;;;;5073487;28;20044;-55
2022/11/17 06:13:18;;;;;;;13.13;11.67;;;7.60;99.90;;;;;;5071570;28;20102;-54
2022/11/17 06:15:44;;;;;;;13.27;11.65;;;7.60;99.90;;;;;;5071784;28;20101;-57
2022/11/17 06:18:14;;;;;;;13.97;11.80;;;7.60;99.90;;;;;;5073008;28;20032;-57
2022/11/17 06:20:45;;;;;;;11.32;9.80;;;7.60;99.90;;;;;;5054578;28;20041;-53
2022/11/17 06:23:11;;;;;;;10.77;9.60;;;7.60;99.90;;;;;;5052478;28;20049;-56
2022/11/17 06:25:37;;;;;;;13.23;11.02;;;7.60;99.90;;;;;;5052367;28;20131;-55
2022/11/17 06:28:07;;;;;;;13.02;10.30;;;7.60;99.90;;;;;;5068841;28;20048;-56
2022/11/17 06:30:34;;;;;;;10.98;9.88;;;7.50;99.90;;;;;;5071463;28;20044;-57
2022/11/17 06:33:00;;;;;;;11.63;10.43;;;7.50;99.90;;;;;;5089510;28;20044;-56
2022/11/17 06:35:27;;;;;;;;;;;7.50;99.90;;;;;;5091373;28;20066;-53
2022/11/17 06:37:53;;;;;;;11.50;10.30;;;7.50;99.90;;;;;;5090740;28;20283;-57
2022/11/17 06:40:19;;;;;;;12.25;10.52;;;7.50;99.90;;;;;;5084024;28;20377;-57
2022/11/17 06:43:02;;;;;;;11.67;10.47;;;7.50;99.90;;;;;;5065545;28;20055;-54
2022/11/17 06:45:35;;;;;;;11.77;10.57;;;7.50;99.90;;;;;;5067421;28;20080;-56
2022/11/17 06:48:01;;;;;;;11.73;10.52;;;7.50;99.90;;;;;;5056891;28;20386;-56
2022/11/17 06:50:26;;;;;;;11.52;10.10;;;7.50;99.90;;;;;;5084935;28;20109;-53
2022/11/17 06:52:56;;;;;;;11.03;9.10;;;7.50;99.90;;;;;;5077340;28;20052;-58
2022/11/17 06:55:21;;;;;;;10.57;9.38;;;7.50;99.90;;;;;;5072007;28;20486;-57
2022/11/17 06:57:47;;;;;;;10.97;9.90;;;7.50;99.90;;;;;;5065348;28;20082;-57
2022/11/17 07:00:13;;;;;;;11.83;10.23;;;7.50;99.90;;;;;;5074639;28;20139;-56
2022/11/17 07:02:39;;;;;;;11.48;10.15;;;7.50;99.90;;;;;;5072803;28;20089;-57
2022/11/17 07:05:04;;;;;;;9.60;8.70;;;7.50;99.90;;;;;;5080874;28;20397;-57
2022/11/17 07:07:30;;;;;;;12.85;10.93;;;7.50;99.90;;;;;;5068782;28;20049;-58
2022/11/17 07:09:55;;;;;;;11.97;8.77;;;7.50;99.90;;;;;;5065050;28;20090;-57
2022/11/17 07:12:21;;;;;;;11.63;10.53;;;7.40;99.90;;;;;;5082278;28;20089;-57
2022/11/17 07:14:47;;;;;;;10.43;9.33;;;7.50;99.90;;;;;;5066479;28;20033;-57
2022/11/17 07:17:12;;;;;;;11.30;10.13;;;7.50;99.90;;;;;;5056469;28;20328;-57
2022/11/17 07:19:38;;;;;;;10.43;9.33;;;7.50;99.90;;;;;;5071270;28;20036;-57
2022/11/17 07:22:03;;;;;;;12.20;8.87;;;7.50;99.90;;;;;;5070983;28;20524;-56
2022/11/17 07:24:29;;;;;;;11.27;10.17;;;7.50;99.90;;;;;;5070404;28;20039;-55
2022/11/17 07:26:54;;;;;;;9.47;8.57;;;7.50;99.90;;;;;;5081252;28;20301;-54
2022/11/17 07:29:20;;;;;;;12.20;10.90;;;7.50;99.90;;;;;;5073029;28;20032;-56
2022/11/17 07:31:45;;;;;;;12.33;9.83;;;7.50;99.90;;;;;;5070178;28;20041;-55
2022/11/17 07:34:11;;;;;;;8.83;7.57;;;7.50;99.90;;;;;;5053901;28;20033;-57
2022/11/17 07:36:36;;;;;;;10.63;9.53;;;7.50;99.90;;;;;;5076887;28;20446;-54
2022/11/17 07:39:04;;;;;;;10.00;9.00;;;7.50;99.90;;;;;;5092006;28;20484;-55
2022/11/17 07:41:29;;;;;;;8.23;7.43;;;7.50;99.90;;;;;;5082355;28;20037;-54
2022/11/17 07:43:55;;;;;;;9.37;8.33;;;7.60;99.90;;;;;;5069732;28;20067;-55
2022/11/17 07:46:20;;;;;;;10.90;9.17;;;7.60;99.90;;;;;;5071442;28;20523;-58
2022/11/17 07:48:46;;;;;;;11.40;10.33;;;7.50;99.90;;;;;;5051531;28;20578;-58
2022/11/17 07:51:12;;;;;;;10.27;9.17;;;7.60;99.90;;;;;;5061734;28;20040;-57
2022/11/17 07:53:38;;;;;;;16.10;10.70;;;7.60;99.90;;;;;;5068271;28;20154;-53
2022/11/17 07:56:09;;;;;;;11.53;9.60;;;7.50;99.90;;;;;;5079403;28;20112;-56
2022/11/17 07:58:35;;;;;;;11.85;10.30;;;7.60;99.90;;;;;;5052629;28;20673;-56
2022/11/17 08:01:04;;;;;;;;;;;7.60;99.90;;;;;;5058615;28;20032;-58
2022/11/17 08:03:30;;;;;;;16.50;11.80;;;7.60;99.90;;;;;;5056267;28;20413;-56
2022/11/17 08:05:56;;;;;;;14.93;9.13;;;7.60;99.90;;;;;;5071476;28;20036;-59
2022/11/17 08:08:22;;;;;;;11.48;10.30;;;7.60;99.90;;;;;;5076586;28;20467;-55
2022/11/17 08:10:47;;;;;;;10.77;9.73;;;7.60;99.90;;;;;;5085799;28;20119;-58
2022/11/17 08:13:14;;;;;;;12.50;10.80;;;7.60;99.90;;;;;;5087612;28;20052;-57
2022/11/17 08:15:39;;;;;;;12.30;11.10;;;7.60;99.90;;;;;;5072778;28;20386;-56
2022/11/17 08:18:05;;;;;;;11.90;8.87;;;7.60;99.90;;;;;;5058871;28;20033;-56
2022/11/17 08:20:30;;;;;;;12.33;11.13;;;7.60;99.90;;;;;;5082931;28;20115;-57
2022/11/17 08:22:56;;;;;;;13.77;12.13;;;7.60;99.90;;;;;;5089937;28;20063;-55
2022/11/17 08:25:24;;;;;;;11.52;10.07;;;7.60;99.90;;;;;;5083125;28;20039;-57
2022/11/17 08:27:54;;;;;;;12.60;9.52;;;7.60;99.90;;;;;;5074957;28;20036;-56
2022/11/17 08:30:20;;;;;;;12.50;11.38;;;7.60;99.90;;;;;;5071859;28;20041;-56
2022/11/17 08:32:51;;;;;;;12.27;10.98;;;7.60;99.90;;;;;;5083074;28;20228;-57
2022/11/17 08:35:19;;;;;;;12.57;11.27;;;7.60;99.90;;;;;;5073980;28;20064;-57
2022/11/17 08:37:45;;;;;;;13.07;11.68;;;7.50;99.90;;;;;;5081356;28;20074;-58
2022/11/17 08:40:12;;;;;;;14.07;12.68;;;7.50;99.90;;;;;;5074460;28;20444;-59
2022/11/17 08:42:37;;;;;;;13.43;11.85;;;7.50;99.90;;;;;;5080697;28;20040;-57
2022/11/17 08:45:04;;;;;;;13.00;11.57;;;7.50;99.90;;;;;;5074634;28;20044;-59
2022/11/17 08:47:30;;;;;;;12.77;11.35;;;7.60;99.90;;;;;;5077031;28;20042;-59
2022/11/17 08:49:56;;;;;;;12.20;10.83;;;7.60;99.90;;;;;;5076893;28;20036;-56
2022/11/17 08:52:21;;;;;;;12.23;11.00;;;7.60;99.90;;;;;;5079985;28;20044;-58
2022/11/17 08:54:47;;;;;;;12.53;9.73;;;7.60;99.90;;;;;;5078010;28;20029;-57
2022/11/17 08:57:12;;;;;;;12.70;11.40;;;7.60;99.90;;;;;;5073313;28;20393;-57
2022/11/17 08:59:38;;;;;;;14.27;11.80;;;7.60;99.90;;;;;;5080364;28;20025;-59
2022/11/17 09:02:04;;;;;;;11.83;10.63;;;7.60;99.90;;;;;;5077101;28;20537;-57
2022/11/17 09:04:29;;;;;;;13.15;10.45;;;7.60;99.90;;;;;;5079036;28;20111;-57
2022/11/17 09:06:55;;;;;;;12.50;11.33;;;7.60;99.90;;;;;;5076580;28;20507;-59
2022/11/17 09:09:21;;;;;;;11.43;9.90;;;7.60;99.90;;;;;;5077048;28;20153;-56
2022/11/17 09:11:46;;;;;;;12.80;10.13;;;7.60;99.90;;;;;;5073698;28;20044;-57
2022/11/17 09:14:12;;;;;;;9.67;8.60;;;7.70;99.90;;;;;;5078706;28;20044;-59
2022/11/17 09:16:37;;;;;;;10.40;9.47;;;7.70;99.90;;;;;;5075679;28;20281;-57
2022/11/17 09:19:03;;;;;;;12.07;10.83;;;7.70;99.90;;;;;;5075110;28;20066;-56
2022/11/17 09:21:30;;;;;;;10.47;9.47;;;7.70;99.90;;;;;;5077328;28;20113;-58
2022/11/17 09:23:55;;;;;;;11.57;10.38;;;7.70;99.90;;;;;;5083835;28;20036;-56
2022/11/17 09:26:21;;;;;;;10.70;9.70;;;7.70;99.90;;;;;;5070722;28;20059;-57
2022/11/17 09:28:47;;;;;;;11.90;10.70;;;7.70;99.90;;;;;;5068719;28;20321;-57
2022/11/17 09:31:15;;;;;;;12.88;11.65;;;7.70;99.90;;;;;;5077956;28;20133;-57
2022/11/17 09:33:42;;;;;;;11.60;10.38;;;7.70;99.90;;;;;;5078854;28;20047;-56
2022/11/17 09:36:09;;;;;;;11.38;10.27;;;7.70;99.90;;;;;;5069157;28;20032;-58
2022/11/17 09:38:35;;;;;;;10.13;8.45;;;7.70;99.90;;;;;;5070513;28;20044;-57
2022/11/17 09:41:16;;;;;;;12.25;10.77;;;7.70;99.90;;;;;;5075674;28;20055;-56
2022/11/17 09:43:49;;;;;;;12.38;11.13;;;7.70;99.90;;;;;;5065022;28;20048;-57
2022/11/17 09:46:22;;;;;;;14.30;11.75;;;7.70;99.90;;;;;;5070300;28;20102;-58
2022/11/17 09:48:57;;;;;;;11.73;10.38;;;7.70;99.90;;;;;;5051669;28;20056;-57
2022/11/17 09:51:25;;;;;;;13.30;11.85;;;7.70;99.90;;;;;;5068047;28;20540;-57
2022/11/17 09:54:10;;;;;;;12.95;11.65;;;7.80;99.90;;;;;;5069549;28;20044;-55
2022/11/17 09:56:36;;;;;;;11.38;10.27;;;7.80;99.90;;;;;;5050340;28;20124;-55
2022/11/17 09:59:03;;;;;;;11.93;10.73;;;7.80;99.90;;;;;;5069523;28;20115;-56
2022/11/17 10:01:29;;;;;;;11.80;10.50;;;7.80;99.90;;;;;;5070335;28;20313;-55
2022/11/17 10:03:57;;;;;;;13.52;10.77;;;7.70;99.90;;;;;;5072367;28;20075;-57
2022/11/17 10:06:30;;;;;;;13.27;10.95;;;7.80;99.90;;;;;;5065935;28;20044;-55
2022/11/17 10:09:01;;;;;;;13.38;11.38;;;7.80;99.90;;;;;;5075940;28;20496;-55
2022/11/17 10:11:34;;;;;;;14.68;11.05;;;7.90;99.90;;;;;;5054164;28;20052;-56
2022/11/17 10:14:15;;;;;;;12.07;10.63;;;7.90;99.90;;;;;;5079727;28;20123;-55
2022/11/17 10:16:46;;;;;;;13.20;11.48;;;8.00;99.90;;;;;;5065521;28;20069;-55
2022/11/17 10:19:42;;;;;;;14.55;11.35;;;8.00;99.90;;;;;;5064145;28;20041;-54
2022/11/17 10:22:16;;;;;;;15.15;10.50;;;8.10;99.90;;;;;;5054274;28;20048;-56
2022/11/17 10:24:46;;;;;;;11.27;9.57;;;8.10;99.90;;;;;;5073279;28;20032;-58
2022/11/17 10:27:18;;;;;;;9.23;8.32;;;8.10;99.90;;;;;;5075926;28;20501;-57
2022/11/17 10:30:03;;;;;;;11.18;8.27;;;8.20;99.90;;;;;;5076612;28;20086;-54
2022/11/17 10:32:36;;;;;;;9.80;8.80;;;8.20;99.90;;;;;;5076524;28;20044;-54
2022/11/17 10:35:19;;;;;;;10.30;9.13;;;8.30;99.90;;;;;;5075040;28;20394;-52
2022/11/17 10:37:59;;;;;;;7.93;7.20;;;8.30;99.90;;;;;;5077490;28;20540;-53
2022/11/17 10:40:30;;;;;;;11.02;8.20;;;8.30;99.90;;;;;;5076839;28;20225;-55
2022/11/17 10:42:59;;;;;;;10.60;8.45;;;8.30;99.90;;;;;;5075694;28;20044;-55
2022/11/17 10:45:25;;;;;;;10.13;8.38;;;8.30;99.90;;;;;;5072908;28;20119;-55
2022/11/17 10:47:50;;;;;;;11.55;10.45;;;8.30;99.90;;;;;;5075787;28;20120;-53
2022/11/17 10:50:23;;;;;;;12.00;10.17;;;8.30;99.90;;;;;;5058680;28;20091;-53
2022/11/17 10:52:51;;;;;;;10.95;9.95;;;8.30;99.90;;;;;;5078552;28;20473;-54
2022/11/17 10:55:32;;;;;;;12.52;10.90;;;8.30;99.90;;;;;;5073424;28;20666;-56
2022/11/17 10:58:03;;;;;;;12.30;10.40;;;8.20;99.90;;;;;;5085878;28;20441;-55
2022/11/17 11:00:34;;;;;;;9.95;8.60;;;8.20;99.90;;;;;;5073987;28;20464;-56
2022/11/17 11:03:16;;;;;;;9.10;8.18;;;8.20;99.90;;;;;;5071671;28;20048;-57
2022/11/17 11:06:02;;;;;;;10.13;9.13;;;8.20;99.90;;;;;;5072763;28;20171;-58
2022/11/17 11:08:33;;;;;;;10.48;9.23;;;8.20;99.90;;;;;;5066313;28;20048;-58
2022/11/17 11:11:01;;;;;;;10.32;8.30;;;8.20;99.90;;;;;;5072806;28;20041;-57
2022/11/17 11:13:47;;;;;;;9.75;7.68;;;8.30;99.90;;;;;;5071757;28;20049;-53
2022/11/17 11:16:12;;;;;;;9.20;8.30;;;8.40;99.90;;;;;;5086672;28;20528;-54
2022/11/17 11:18:38;;;;;;;8.47;7.67;;;8.40;99.90;;;;;;5066955;28;20033;-57
2022/11/17 11:21:25;;;;;;;7.93;7.10;;;8.50;99.90;;;;;;5075065;28;20448;-57
2022/11/17 11:24:09;;;;;;;8.77;7.97;;;8.60;99.90;;;;;;5072273;28;20048;-55
2022/11/17 11:27:01;;;;;;;7.93;7.22;;;8.70;99.90;;;;;;5072973;28;20036;-58
2022/11/17 11:29:49;;;;;;;8.07;7.22;;;8.80;99.90;;;;;;5053053;28;20040;-57
2022/11/17 11:32:44;;;;;;;9.15;8.35;;;8.90;99.90;;;;;;5072170;28;20033;-58
2022/11/17 11:35:19;;;;;;;9.48;8.57;;;9.00;99.90;;;;;;5067787;28;20095;-54
2022/11/17 11:37:53;;;;;;;9.93;9.02;;;9.00;99.90;;;;;;5057285;28;20030;-58
2022/11/17 11:40:41;;;;;;;10.55;9.45;;;9.00;99.90;;;;;;5055190;28;20484;-55
2022/11/17 11:43:22;;;;;;;9.77;8.88;;;9.00;99.90;;;;;;5058975;28;20158;-58
2022/11/17 11:46:04;;;;;;;13.95;10.13;;;9.00;99.90;;;;;;5050115;28;20041;-57
2022/11/17 11:48:32;;;;;;;12.38;9.95;;;9.00;99.90;;;;;;5053431;28;20044;-57
2022/11/17 11:51:04;;;;;;;11.43;9.95;;;9.00;99.90;;;;;;5058248;28;20047;-57
2022/11/17 11:53:41;;;;;;;12.82;9.50;;;9.10;99.90;;;;;;5051261;28;20163;-56
2022/11/17 11:56:10;;;;;;;14.65;9.65;;;9.10;99.90;;;;;;5050876;28;20074;-55
2022/11/17 11:59:01;;;;;;;12.18;9.02;;;9.10;99.90;;;;;;5060984;28;20040;-57
2022/11/17 12:01:31;;;;;;;11.65;8.90;;;9.20;99.90;;;;;;5050352;28;20052;-57
2022/11/17 12:04:25;;;;;;;14.40;9.30;;;9.20;99.90;;;;;;5053716;28;20383;-57
2022/11/17 12:07:06;;;;;;;10.73;8.05;;;9.20;99.90;;;;;;5060992;28;20037;-57
2022/11/17 12:10:00;;;;;;;12.75;7.78;;;9.20;99.90;;;;;;5058825;28;20233;-57
2022/11/17 12:12:35;;;;;;;8.05;5.57;;;9.30;99.90;;;;;;5061706;28;20040;-58
2022/11/17 12:15:19;;;;;;;9.80;4.30;;;9.50;99.90;;;;;;5064466;28;20028;-55
2022/11/17 12:17:50;;;;;;;21.77;3.67;;;9.60;99.90;;;;;;5066634;28;20082;-53
2022/11/17 12:20:35;;;;;;;3.85;2.80;;;9.70;99.90;;;;;;5056435;28;20131;-56
2022/11/17 12:23:09;;;;;;;3.88;2.70;;;9.90;99.90;;;;;;5061878;28;20044;-56
2022/11/17 12:25:42;;;;;;;4.30;2.60;;;10.00;99.90;;;;;;5056118;28;20040;-54
2022/11/17 12:28:38;;;;;;;7.68;2.28;;;10.10;99.90;;;;;;5055063;28;20154;-57
2022/11/17 12:31:23;;;;;;;7.68;2.17;;;10.20;99.90;;;;;;5049050;28;20068;-56
2022/11/17 12:33:51;;;;;;;9.63;2.75;;;10.20;99.90;;;;;;5058379;28;20089;-54
2022/11/17 12:36:23;;;;;;;6.47;2.30;;;10.20;99.90;;;;;;5073319;28;20049;-55
2022/11/17 12:38:49;;;;;;;8.27;1.98;;;10.30;99.90;;;;;;5061319;28;20075;-55
2022/11/17 12:41:47;;;;;;;3.80;2.40;;;10.30;99.90;;;;;;5055173;28;20064;-54
2022/11/17 12:44:37;;;;;;;2.63;1.63;;;10.30;99.90;;;;;;5053354;28;20047;-56
2022/11/17 12:47:18;;;;;;;6.95;3.38;;;10.30;99.90;;;;;;5056991;28;20040;-57
2022/11/17 12:49:54;;;;;;;3.78;2.08;;;10.40;99.90;;;;;;5072279;28;20033;-57
2022/11/17 12:52:31;;;;;;;4.88;2.72;;;10.40;99.90;;;;;;5050302;28;20389;-53
2022/11/17 12:55:22;;;;;;;3.88;2.00;;;10.40;99.90;;;;;;5047779;28;20039;-55
2022/11/17 12:58:01;;;;;;;5.70;1.90;;;10.40;99.90;;;;;;5048856;28;20131;-55
2022/11/17 13:00:28;;;;;;;6.45;1.92;;;10.40;99.90;;;;;;5046317;28;20041;-57
2022/11/17 13:03:10;;;;;;;4.32;1.40;;;10.40;99.90;;;;;;5053412;28;20382;-57
2022/11/17 13:05:36;;;;;;;5.18;1.25;;;10.40;99.90;;;;;;5052069;28;20041;-56
2022/11/17 13:08:22;;;;;;;3.50;1.25;;;10.40;99.90;;;;;;5054008;28;20048;-57
2022/11/17 13:10:48;;;;;;;5.22;1.30;;;10.50;99.90;;;;;;5061046;28;20087;-53
2022/11/17 13:13:23;;;;;;;6.35;1.27;;;10.40;99.90;;;;;;5055767;28;20048;-53
2022/11/17 13:15:54;;;;;;;5.47;0.93;;;10.50;99.90;;;;;;5052662;28;20563;-57
2022/11/17 13:18:32;;;;;;;3.90;1.58;;;10.50;99.90;;;;;;5058990;28;20041;-58
2022/11/17 13:20:59;;;;;;;5.95;1.67;;;10.50;99.90;;;;;;5052424;28;20033;-56
2022/11/17 13:23:29;;;;;;;9.52;1.73;;;10.50;99.90;;;;;;5058522;28;20045;-55
2022/11/17 13:26:15;;;;;;;5.63;1.52;;;10.50;99.90;;;;;;5086381;28;20040;-56
2022/11/17 13:28:41;;;;;;;4.90;1.48;;;10.50;99.90;;;;;;5059631;28;20079;-57
2022/11/17 13:31:22;;;;;;;3.83;1.30;;;10.50;99.90;;;;;;5089283;28;20476;-53